Glasgow, United Kingdom
Current Conditions -  °F | °C
As of 12:50 AM on Monday 22 Dec 2014 (Local Time) from EGPF Reporting Station
Light Rain Light Rain  
Wind Chill: 10°   Ceiling: 4000
Heat Index: 10°   Visibility: 5mi
Dew Point:   Wind: 14mph
Humidity: 94%   Direction: 250°WSW
Pressure: 29.62"   Gusts: NA
Location:  55.87°N, 4.26°W
Report Text: EGPF 220050Z AUTO 25012KT 8000 -RA SCT014/// BKN040/// //////TCU 10/09 Q1003 RERA
Loading
Personal Weather Stations






























Interactive Weather Map New forecast layout! Learn more

10-Day Weather Forecast

Advertisements
Track Severe Weather on mobile